.
WxDataArchive / Data Records for 2010-10-09
2010-10-08 October 2010 2010-10-10

Data Records for Saturday, 09 October 2010

Time	Temp	Chill	HIndex	Humid	Dewpt	 Wind 	HiWind	WindDir	Rain 	Barom 
-----	----	-----	------	-----	-----	------	------	-------	-----	----- 
00:00	60.5	60.5	60.5	40	36.1	0	0	---	0.00	30.011 
00:05	60.4	60.4	60.4	39	35.3	0	0	---	0.00	30.011 
00:10	60.4	60.4	60.4	38	34.7	0	1	292	0.00	30.011 
00:15	60.4	60.4	60.4	38	34.7	0	0	---	0.00	30.008 
00:20	60.5	60.5	60.5	38	34.8	0	0	---	0.00	30.008 
00:25	60.4	60.4	60.4	38	34.7	0	0	---	0.00	30.008 
00:30	60.4	60.4	60.4	38	34.7	0	1	292	0.00	30.002 
00:35	60.4	60.4	60.4	38	34.7	0	0	---	0.00	30.002 
00:40	60.4	60.4	60.4	38	34.7	0	1	292	0.00	30.002 
00:45	60.4	60.4	60.4	38	34.7	0	0	---	0.00	30.000 
00:50	60.2	60.2	60.2	38	34.5	0	0	---	0.00	30.000 
00:55	60.4	60.4	60.4	37	34.0	0	1	292	0.00	30.000 
01:00	60.5	60.5	60.5	37	34.1	0	0	---	0.00	30.002 
01:05	60.5	60.5	60.5	37	34.1	0	0	---	0.00	30.002 
01:10	60.4	60.4	60.4	38	34.7	0	0	---	0.00	30.002 
01:15	60.4	60.4	60.4	38	34.7	0	0	---	0.00	29.998 
01:20	60.1	60.1	60.1	38	34.4	0	0	---	0.00	29.998 
01:25	59.9	59.9	59.9	39	34.9	0	0	---	0.00	29.998 
01:30	59.6	59.6	59.6	39	34.6	0	0	---	0.00	29.998 
01:35	59.3	59.3	59.3	40	35.0	0	0	---	0.00	29.998 
01:40	59.2	59.2	59.2	41	35.5	0	0	---	0.00	29.998 
01:45	59.0	59.0	59.0	40	34.7	0	0	---	0.00	29.996 
01:50	59.0	59.0	59.0	41	35.3	0	0	---	0.00	29.996 
01:55	59.0	59.0	59.0	41	35.3	0	0	---	0.00	29.996 
02:00	59.0	59.0	59.0	41	35.3	0	0	---	0.00	29.998 
02:05	58.7	58.7	58.7	41	35.1	0	0	---	0.00	29.998 
02:10	58.4	58.4	58.4	42	35.4	0	0	---	0.00	29.998 
02:15	58.1	58.1	58.1	43	35.7	0	0	---	0.00	29.998 
02:20	57.8	57.8	57.8	43	35.5	0	0	---	0.00	29.998 
02:25	57.5	57.5	57.5	44	35.8	0	0	---	0.00	29.998 
02:30	57.3	57.3	57.3	45	36.1	0	0	---	0.00	29.999 
02:35	57.2	57.2	57.2	46	36.6	0	0	---	0.00	29.999 
02:40	56.9	56.9	56.9	46	36.3	0	0	---	0.00	29.999 
02:45	56.7	56.7	56.7	46	36.2	0	0	---	0.00	29.999 
02:50	56.6	56.6	56.6	47	36.6	0	0	---	0.00	29.999 
02:55	56.6	56.6	56.6	46	36.1	0	0	---	0.00	29.999 
03:00	56.6	56.6	56.6	47	36.6	0	0	---	0.00	29.999 
03:05	56.7	56.7	56.7	46	36.2	0	0	---	0.00	29.999 
03:10	56.7	56.7	56.7	46	36.2	0	0	---	0.00	29.999 
03:15	56.9	56.9	56.9	46	36.3	0	0	---	0.00	30.002 
03:20	57.0	57.0	57.0	45	35.9	0	0	---	0.00	30.002 
03:25	57.0	57.0	57.0	45	35.9	0	0	---	0.00	30.002 
03:30	57.2	57.2	57.2	45	36.1	0	0	---	0.00	30.003 
03:35	57.2	57.2	57.2	45	36.1	0	0	---	0.00	30.003 
03:40	57.3	57.3	57.3	45	36.1	0	0	---	0.00	30.003 
03:45	57.3	57.3	57.3	45	36.1	0	0	---	0.00	30.004 
03:50	57.2	57.2	57.2	45	36.1	0	0	---	0.00	30.004 
03:55	57.2	57.2	57.2	45	36.1	0	0	---	0.00	30.004 
04:00	57.0	57.0	57.0	46	36.4	0	0	---	0.00	29.998 
04:05	56.9	56.9	56.9	46	36.3	0	0	---	0.00	29.998 
04:10	56.9	56.9	56.9	46	36.3	0	0	---	0.00	29.998 
04:15	56.7	56.7	56.7	46	36.2	0	0	---	0.00	29.997 
04:20	56.6	56.6	56.6	47	36.6	0	0	---	0.00	29.997 
04:25	56.5	56.5	56.5	47	36.5	0	0	---	0.00	29.997 
04:30	56.3	56.3	56.3	48	36.9	0	0	---	0.00	29.998 
04:35	56.2	56.2	56.2	48	36.8	0	0	---	0.00	29.998 
04:40	56.0	56.0	56.0	49	37.1	0	0	---	0.00	29.998 
04:45	55.9	55.9	55.9	49	37.0	0	0	---	0.00	30.002 
04:50	55.6	55.6	55.6	50	37.3	0	0	---	0.00	30.002 
04:55	55.3	55.3	55.3	50	37.0	0	0	---	0.00	30.002 
05:00	55.0	55.0	55.0	51	37.2	0	0	---	0.00	30.003 
05:05	54.8	54.8	54.8	51	37.0	0	0	---	0.00	30.003 
05:10	54.5	54.5	54.5	53	37.7	0	0	---	0.00	30.003 
05:15	54.2	54.2	54.2	53	37.4	0	0	---	0.00	30.007 
05:20	54.1	54.1	54.1	54	37.8	0	0	---	0.00	30.007 
05:25	53.8	53.8	53.8	54	37.5	0	0	---	0.00	30.007 
05:30	53.6	53.6	53.6	54	37.4	0	0	---	0.00	30.010 
05:35	53.5	53.5	53.5	54	37.3	0	0	---	0.00	30.010 
05:40	53.5	53.5	53.5	54	37.3	0	0	---	0.00	30.010 
05:45	53.3	53.3	53.3	54	37.1	0	0	---	0.00	30.012 
05:50	53.2	53.2	53.2	55	37.5	0	0	---	0.00	30.012 
05:55	53.1	53.1	53.1	56	37.8	0	0	---	0.00	30.012 
06:00	52.8	52.8	52.8	57	38.0	0	0	---	0.00	30.014 
06:05	52.6	52.6	52.6	57	37.8	0	0	---	0.00	30.014 
06:10	52.5	52.5	52.5	58	38.2	0	0	---	0.00	30.014 
06:15	52.2	52.2	52.2	59	38.3	0	0	---	0.00	30.018 
06:20	52.0	52.0	52.0	59	38.1	0	0	---	0.00	30.018 
06:25	51.7	51.7	51.7	61	38.7	0	0	---	0.00	30.018 
06:30	51.4	51.4	51.4	62	38.8	0	0	---	0.00	30.022 
06:35	51.1	51.1	51.1	62	38.5	0	0	---	0.00	30.022 
06:40	50.8	50.8	50.8	63	38.7	0	0	---	0.00	30.022 
06:45	50.5	50.5	50.5	64	38.8	0	0	---	0.00	30.026 
06:50	50.4	50.4	50.4	65	39.1	0	0	---	0.00	30.026 
06:55	50.1	50.1	50.1	65	38.8	0	0	---	0.00	30.026 
07:00	49.9	49.9	49.9	66	39.0	0	0	---	0.00	30.031 
07:05	49.8	49.8	49.8	67	39.3	0	0	---	0.00	30.031 
07:10	49.6	49.6	49.6	67	39.1	0	0	---	0.00	30.031 
07:15	49.5	49.5	49.5	68	39.4	0	0	---	0.00	30.042 
07:20	49.4	49.4	49.4	68	39.3	0	0	---	0.00	30.042 
07:25	49.4	49.4	49.4	69	39.7	0	0	---	0.00	30.042 
07:30	49.4	49.4	49.4	69	39.7	0	0	---	0.00	30.042 
07:35	49.2	49.2	49.2	69	39.5	0	0	---	0.00	30.042 
07:40	49.2	49.2	49.2	68	39.1	0	0	---	0.00	30.042 
07:45	49.4	49.4	49.4	69	39.7	0	0	---	0.00	30.043 
07:50	49.6	49.6	49.6	69	39.9	0	0	---	0.00	30.043 
07:55	49.9	49.9	49.9	68	39.8	0	0	---	0.00	30.043 
08:00	50.4	50.4	50.4	67	39.9	0	0	---	0.00	30.046 
08:05	50.7	50.7	50.7	67	40.1	0	0	---	0.00	30.046 
08:10	50.8	50.8	50.8	66	39.9	0	0	---	0.00	30.046 
08:15	51.0	51.0	51.0	66	40.0	0	0	---	0.00	30.053 
08:20	51.3	51.3	51.3	66	40.3	0	0	---	0.00	30.053 
08:25	51.7	51.7	51.7	66	40.7	0	0	---	0.00	30.053 
08:30	52.2	52.2	52.2	66	41.2	0	0	---	0.00	30.053 
08:35	52.5	52.5	52.5	65	41.1	0	0	---	0.00	30.053 
08:40	52.9	52.9	52.9	64	41.1	0	0	---	0.00	30.053 
08:45	53.5	53.5	53.5	63	41.2	0	0	---	0.00	30.053 
08:50	54.2	54.2	54.2	61	41.0	0	0	---	0.00	30.053 
08:55	55.0	55.0	55.0	59	40.9	0	1	292	0.00	30.053 
09:00	55.7	55.7	55.7	58	41.2	0	1	292	0.00	30.052 
09:05	56.3	56.3	56.3	57	41.3	0	1	292	0.00	30.052 
09:10	57.0	57.0	57.0	56	41.5	0	2	292	0.00	30.052 
09:15	57.5	57.5	57.5	55	41.5	0	1	292	0.00	30.052 
09:20	58.0	58.0	58.0	55	41.9	0	1	292	0.00	30.052 
09:25	58.4	58.4	58.4	54	41.8	0	2	292	0.00	30.052 
09:30	59.0	59.0	59.0	54	42.4	0	1	292	0.00	30.053 
09:35	59.5	59.5	59.5	52	41.9	1	2	292	0.00	30.053 
09:40	59.9	59.9	59.9	52	42.2	0	2	292	0.00	30.053 
09:45	60.5	60.5	60.5	51	42.3	0	1	292	0.00	30.052 
09:50	61.0	61.0	61.0	51	42.7	1	2	292	0.00	30.052 
09:55	61.6	61.6	61.6	50	42.8	1	3	292	0.00	30.052 
10:00	62.1	62.1	62.1	50	43.2	1	3	292	0.00	30.049 
10:05	62.7	62.7	62.7	49	43.3	1	3	292	0.00	30.049 
10:10	63.4	63.4	63.4	49	43.9	1	3	292	0.00	30.049 
10:15	64.0	64.0	64.0	48	43.9	1	2	292	0.00	30.045 
10:20	64.8	64.8	64.8	47	44.1	1	3	270	0.00	30.045 
10:25	65.3	65.3	65.3	46	44.0	1	2	270	0.00	30.045 
10:30	66.1	66.1	66.1	46	44.7	0	2	270	0.00	30.039 
10:35	66.9	66.9	66.9	44	44.3	1	3	270	0.00	30.039 
10:40	67.8	67.8	67.8	45	45.7	1	2	270	0.00	30.039 
10:45	68.3	68.3	68.3	44	45.5	1	3	315	0.00	30.034 
10:50	68.9	68.9	68.9	43	45.5	1	3	270	0.00	30.034 
10:55	69.6	69.6	69.6	43	46.1	1	3	270	0.00	30.034 
11:00	70.1	70.1	70.1	42	45.9	1	2	270	0.00	30.035 
11:05	70.8	70.8	70.8	42	46.6	0	2	270	0.00	30.035 
11:10	71.3	71.3	71.3	41	46.4	1	3	270	0.00	30.035 
11:15	71.8	71.8	71.8	41	46.8	0	2	270	0.00	30.029 
11:20	72.3	72.3	72.3	40	46.6	1	3	270	0.00	30.029 
11:25	72.8	72.8	72.8	39	46.4	1	2	270	0.00	30.029 
11:30	73.2	73.2	73.2	40	47.4	0	2	270	0.00	30.027 
11:35	73.9	73.9	73.9	38	46.7	1	3	270	0.00	30.027 
11:40	74.2	74.2	74.2	39	47.6	0	2	270	0.00	30.027 
11:45	74.7	74.7	74.7	38	47.4	0	1	270	0.00	30.026 
11:50	75.3	75.3	77.5	39	48.6	0	1	270	0.00	30.026 
11:55	75.8	75.8	77.6	37	47.7	0	2	270	0.00	30.026 
12:00	76.1	76.1	77.7	37	47.9	0	1	270	0.00	30.023 
12:05	76.5	76.5	77.8	36	47.5	1	3	270	0.00	30.023 
12:10	76.8	76.8	77.9	36	47.8	0	1	270	0.00	30.023 
12:15	77.4	77.4	78.1	35	47.6	0	1	270	0.00	30.018 
12:20	77.7	77.7	78.2	34	47.1	0	1	270	0.00	30.018 
12:25	78.1	78.1	78.4	33	46.6	0	2	270	0.00	30.018 
12:30	78.3	78.3	78.5	33	46.8	0	2	270	0.00	30.008 
12:35	78.6	78.6	78.7	35	48.6	0	2	270	0.00	30.008 
12:40	79.0	79.0	78.9	34	48.2	0	2	270	0.00	30.008 
12:45	79.4	79.4	79.0	32	46.9	1	3	270	0.00	30.005 
12:50	79.6	79.6	79.2	34	48.7	1	4	90	0.00	30.005 
12:55	80.1	80.1	79.4	32	47.6	0	2	90	0.00	30.005 
13:00	80.7	80.7	79.8	33	48.9	0	2	248	0.00	30.002 
13:05	81.1	81.1	80.1	33	49.2	0	2	248	0.00	30.002 
13:10	81.2	81.2	80.2	33	49.3	0	2	90	0.00	30.002 
13:15	81.4	81.4	80.2	32	48.7	0	3	90	0.00	30.003 
13:20	81.6	81.6	80.4	32	48.9	1	2	202	0.00	30.003 
13:25	81.4	81.4	80.4	34	50.3	0	2	225	0.00	30.003 
13:30	81.4	81.4	80.4	34	50.3	0	2	158	0.00	30.003 
13:35	81.6	81.6	80.5	33	49.7	1	3	270	0.00	30.003 
13:40	81.8	81.8	80.7	34	50.7	0	2	248	0.00	30.003 
13:45	81.6	81.6	80.7	36	52.0	1	3	315	0.00	30.000 
13:50	81.6	81.6	80.7	36	52.0	1	2	270	0.00	30.000 
13:55	81.6	81.6	80.8	37	52.8	1	3	270	0.00	30.000 
14:00	81.6	81.6	80.7	36	52.0	1	3	248	0.00	29.996 
14:05	81.6	81.6	80.7	36	52.0	0	3	270	0.00	29.996 
14:10	82.0	82.0	81.0	36	52.4	0	2	270	0.00	29.996 
14:15	82.2	82.2	81.2	36	52.6	0	1	270	0.00	29.994 
14:20	82.4	82.4	81.3	36	52.7	0	2	270	0.00	29.994 
14:25	82.2	82.2	81.1	35	51.8	1	5	270	0.00	29.994 
14:30	82.0	82.0	81.0	36	52.4	1	2	270	0.00	29.988 
14:35	82.2	82.2	81.2	36	52.6	1	4	248	0.00	29.988 
14:40	82.6	82.6	81.6	37	53.7	0	3	248	0.00	29.988 
14:45	82.8	82.8	81.6	35	52.3	1	4	270	0.00	29.981 
14:50	83.0	83.0	81.7	35	52.5	1	3	270	0.00	29.981 
14:55	82.8	82.8	81.6	35	52.3	1	3	270	0.00	29.981 
15:00	82.6	82.6	81.4	35	52.1	1	3	292	0.00	29.976 
15:05	82.6	82.6	81.5	36	52.9	1	2	292	0.00	29.976 
15:10	83.0	83.0	81.7	35	52.5	1	3	248	0.00	29.976 
15:15	83.4	83.4	82.1	35	52.8	1	3	248	0.00	29.972 
15:20	83.2	83.2	82.0	36	53.4	1	3	248	0.00	29.972 
15:25	83.4	83.4	82.1	35	52.8	1	3	248	0.00	29.972 
15:30	83.6	83.6	82.4	36	53.8	0	3	248	0.00	29.972 
15:35	83.8	83.8	82.4	35	53.2	1	2	248	0.00	29.972 
15:40	84.0	84.0	82.3	33	51.8	1	2	270	0.00	29.972 
15:45	83.8	83.8	82.3	34	52.4	0	2	292	0.00	29.971 
15:50	83.8	83.8	82.3	34	52.4	1	4	270	0.00	29.971 
15:55	83.8	83.8	82.3	34	52.4	1	5	270	0.00	29.971 
16:00	84.0	84.0	82.3	33	51.8	1	3	270	0.00	29.970 
16:05	84.1	84.1	82.5	34	52.7	0	2	270	0.00	29.970 
16:10	84.5	84.5	82.8	33	52.2	0	2	248	0.00	29.970 
16:15	84.1	84.1	82.4	33	51.9	1	4	292	0.00	29.972 
16:20	83.8	83.8	82.3	34	52.4	1	4	292	0.00	29.972 
16:25	83.8	83.8	82.4	35	53.2	1	4	248	0.00	29.972 
16:30	83.8	83.8	82.4	35	53.2	0	2	248	0.00	29.971 
16:35	84.0	84.0	82.6	35	53.4	0	2	270	0.00	29.971 
16:40	84.0	84.0	82.6	35	53.4	1	4	270	0.00	29.971 
16:45	84.0	84.0	82.6	35	53.4	0	2	270	0.00	29.971 
16:50	84.0	84.0	82.5	34	52.6	1	3	270	0.00	29.971 
16:55	83.8	83.8	82.3	34	52.4	1	3	270	0.00	29.971 
17:00	83.8	83.8	82.3	34	52.4	1	3	270	0.00	29.970 
17:05	83.8	83.8	82.4	35	53.2	0	1	270	0.00	29.970 
17:10	83.6	83.6	82.2	35	53.0	0	2	270	0.00	29.970 
17:15	83.6	83.6	82.1	34	52.2	0	2	270	0.00	29.968 
17:20	83.6	83.6	82.2	35	53.0	0	2	270	0.00	29.968 
17:25	83.6	83.6	82.2	35	53.0	1	4	270	0.00	29.968 
17:30	83.6	83.6	82.2	35	53.0	0	2	270	0.00	29.966 
17:35	83.6	83.6	82.1	34	52.2	0	2	270	0.00	29.966 
17:40	83.4	83.4	81.9	34	52.1	0	1	270	0.00	29.966 
17:45	83.4	83.4	81.9	34	52.1	0	2	270	0.00	29.965 
17:50	83.2	83.2	81.9	35	52.7	1	4	270	0.00	29.965 
17:55	83.2	83.2	81.8	34	51.9	0	3	270	0.00	29.965 
18:00	83.0	83.0	81.7	35	52.5	0	1	270	0.00	29.963 
18:05	83.0	83.0	81.6	34	51.7	1	3	270	0.00	29.963 
18:10	82.8	82.8	81.6	35	52.3	0	2	270	0.00	29.963 
18:15	82.6	82.6	81.4	35	52.1	0	2	270	0.00	29.965 
18:20	82.4	82.4	81.2	35	52.0	0	1	270	0.00	29.965 
18:25	82.2	82.2	81.1	35	51.8	0	1	270	0.00	29.965 
18:30	81.8	81.8	80.9	36	52.2	0	1	270	0.00	29.966 
18:35	81.6	81.6	80.8	37	52.8	0	1	270	0.00	29.966 
18:40	81.2	81.2	80.6	38	53.1	0	0	---	0.00	29.966 
18:45	80.9	80.9	80.3	37	52.2	0	1	270	0.00	29.968 
18:50	80.5	80.5	80.1	38	52.5	0	1	270	0.00	29.968 
18:55	80.3	80.3	80.1	39	53.1	0	0	---	0.00	29.968 
19:00	79.8	79.8	79.7	39	52.6	0	0	---	0.00	29.970 
19:05	79.4	79.4	79.5	40	52.9	0	0	---	0.00	29.970 
19:10	78.6	78.6	79.2	42	53.6	0	0	---	0.00	29.970 
19:15	77.9	77.9	78.8	43	53.6	0	0	---	0.00	29.975 
19:20	77.2	77.2	78.5	44	53.6	0	0	---	0.00	29.975 
19:25	76.3	76.3	78.1	45	53.4	0	0	---	0.00	29.975 
19:30	75.6	75.6	77.8	46	53.3	0	0	---	0.00	29.982 
19:35	74.9	74.9	74.9	48	53.9	0	0	---	0.00	29.982 
19:40	74.2	74.2	74.2	50	54.3	0	0	---	0.00	29.982 
19:45	73.5	73.5	73.5	51	54.2	0	0	---	0.00	29.984 
19:50	73.0	73.0	73.0	52	54.3	0	0	---	0.00	29.984 
19:55	72.5	72.5	72.5	53	54.4	0	0	---	0.00	29.984 
20:00	72.0	72.0	72.0	54	54.4	0	0	---	0.00	29.985 
20:05	71.3	71.3	71.3	56	54.8	0	0	---	0.00	29.985 
20:10	70.8	70.8	70.8	57	54.8	0	0	---	0.00	29.985 
20:15	70.3	70.3	70.3	58	54.8	0	0	---	0.00	29.983 
20:20	69.6	69.6	69.6	60	55.1	0	0	---	0.00	29.983 
20:25	69.3	69.3	69.3	61	55.3	0	0	---	0.00	29.983 
20:30	68.8	68.8	68.8	62	55.2	0	0	---	0.00	29.986 
20:35	68.4	68.4	68.4	62	54.9	0	0	---	0.00	29.986 
20:40	68.1	68.1	68.1	64	55.5	0	0	---	0.00	29.986 
20:45	67.8	67.8	67.8	65	55.6	0	0	---	0.00	29.986 
20:50	67.4	67.4	67.4	65	55.2	0	0	---	0.00	29.986 
20:55	66.9	66.9	66.9	66	55.2	0	0	---	0.00	29.986 
21:00	66.6	66.6	66.6	67	55.3	0	0	---	0.00	29.991 
21:05	66.3	66.3	66.3	68	55.4	0	0	---	0.00	29.991 
21:10	66.0	66.0	66.0	69	55.5	0	0	---	0.00	29.991 
21:15	65.6	65.6	65.6	69	55.1	0	0	---	0.00	29.991 
21:20	65.5	65.5	65.5	70	55.4	0	0	---	0.00	29.991 
21:25	65.2	65.2	65.2	71	55.6	0	0	---	0.00	29.991 
21:30	65.0	65.0	65.0	72	55.7	0	0	---	0.00	29.989 
21:35	64.8	64.8	64.8	72	55.6	0	0	---	0.00	29.989 
21:40	64.7	64.7	64.7	73	55.8	0	0	---	0.00	29.989 
21:45	64.7	64.7	64.7	73	55.8	0	0	---	0.00	29.984 
21:50	64.5	64.5	64.5	73	55.6	0	0	---	0.00	29.984 
21:55	64.3	64.3	64.3	74	55.8	0	3	270	0.00	29.984 
22:00	64.5	64.5	64.5	69	54.1	1	5	68	0.00	29.996 
22:05	64.8	64.8	64.8	64	52.3	1	3	112	0.00	29.996 
22:10	65.0	65.0	65.0	63	52.1	0	1	112	0.00	29.996 
22:15	65.2	65.2	65.2	61	51.4	1	5	90	0.00	29.993 
22:20	65.2	65.2	65.2	60	51.0	1	3	112	0.00	29.993 
22:25	65.0	65.0	65.0	60	50.8	1	3	112	0.00	29.993 
22:30	64.8	64.8	64.8	60	50.6	1	3	112	0.00	29.995 
22:35	64.5	64.5	64.5	60	50.3	0	2	112	0.00	29.995 
22:40	64.3	64.3	64.3	60	50.1	0	2	112	0.00	29.995 
22:45	64.0	64.0	64.0	60	49.8	0	0	---	0.00	29.997 
22:50	63.7	63.7	63.7	61	50.0	0	0	---	0.00	29.997 
22:55	63.2	63.2	63.2	62	50.0	0	1	112	0.00	29.997 
23:00	62.9	62.9	62.9	62	49.7	0	0	---	0.00	29.997 
23:05	62.6	62.6	62.6	63	49.8	0	1	112	0.00	29.997 
23:10	62.4	62.4	62.4	64	50.1	0	0	---	0.00	29.997 
23:15	62.1	62.1	62.1	64	49.8	0	0	---	0.00	29.995 
23:20	62.0	62.0	62.0	65	50.1	0	0	---	0.00	29.995 
23:25	61.6	61.6	61.6	65	49.7	0	0	---	0.00	29.995 
23:30	61.3	61.3	61.3	66	49.8	0	0	---	0.00	29.997 
23:35	61.0	61.0	61.0	66	49.6	0	0	---	0.00	29.997 
23:40	60.7	60.7	60.7	67	49.7	0	0	---	0.00	29.997 
23:45	60.4	60.4	60.4	67	49.4	0	0	---	0.00	30.000 
23:50	60.2	60.2	60.2	68	49.6	0	0	---	0.00	30.000 
23:55	59.9	59.9	59.9	67	48.9	0	0	---	0.00	30.000 

CoCoRaHS
IN-AL-39
A2 Web Hosting
Creative Commons License
GoDaddy
search engine by freefind advanced

loaded 2018-11-20 06:17:18 • last modified 2010-11-18 10:43:29
Privacy PolicyDisclaimer
• wx.awcolley.com is powered by PmWiki v.2002016 •
• all content (unless otherwise noted) © 2018 A W Colley